< < Back
Terminal Aerodrome Forecast


Current Version              Previous Versions:   1  2  3  4  5  6  7  8  9  

Terminal Aerodrome Forecast

421
FTUS42 KJAX 220500
TAFJAX
TAF
KJAX 220528Z 2206/2306 00000KT P6SM SCT250
     FM221400 26003KT P6SM SCT250
     FM221900 14007KT P6SM FEW100 BKN250
     FM230400 20002KT P6SM VCTS SCT035CB OVC250=



Latest METAR

100
SAUS80 KWBC 221800
MTRJAX
METAR KJAX 221756Z 20004KT 10SM FEW035 SCT250 31/16 A2999 RMK AO2 SLP156
T03060161 10311 20178 56020


USA.gov is the U.S. government's official web portal to all federal, state and local government web resources and services.